createdAt,value
2019-05-23T00:01:54.598Z,78.61
2019-05-23T00:04:29.664Z,78.59
2019-05-23T00:07:00.828Z,78.59
2019-05-23T00:09:30.690Z,78.20
2019-05-23T00:12:12.017Z,78.10
2019-05-23T00:14:47.114Z,77.76
2019-05-23T00:17:18.969Z,77.35
2019-05-23T00:19:50.617Z,78.34
2019-05-23T00:22:21.995Z,78.10
2019-05-23T00:24:51.702Z,77.47
2019-05-23T00:27:22.168Z,77.47
2019-05-23T00:29:51.817Z,77.96
2019-05-23T00:32:28.133Z,78.23
2019-05-23T00:34:59.505Z,79.05
2019-05-23T00:37:30.889Z,79.18
2019-05-23T00:40:00.704Z,79.18
2019-05-23T00:42:31.871Z,80.06
2019-05-23T00:45:01.646Z,80.62
2019-05-23T00:47:31.888Z,80.74
2019-05-23T00:50:03.191Z,80.77
2019-05-23T00:52:33.229Z,80.39
2019-05-23T00:55:06.777Z,80.39
2019-05-23T00:57:37.513Z,80.57
2019-05-23T01:00:09.395Z,80.57
2019-05-23T01:02:39.136Z,80.89
2019-05-23T01:05:09.011Z,80.40
2019-05-23T01:07:39.145Z,80.40
2019-05-23T01:10:10.046Z,80.45
2019-05-23T01:12:40.517Z,80.88
2019-05-23T01:15:11.067Z,80.76
2019-05-23T01:17:41.730Z,80.27
2019-05-23T01:20:13.633Z,80.25
2019-05-23T01:22:43.551Z,80.80
2019-05-23T01:25:14.073Z,80.64
2019-05-23T01:27:43.785Z,80.66
2019-05-23T01:30:15.965Z,80.95
2019-05-23T01:32:47.312Z,80.95
2019-05-23T01:35:20.601Z,81.30
2019-05-23T01:37:51.330Z,80.82
2019-05-23T01:40:21.934Z,80.52
2019-05-23T01:42:51.869Z,81.01
2019-05-23T01:45:22.917Z,81.01
2019-05-23T01:47:53.800Z,80.92
2019-05-23T01:50:25.575Z,80.83
2019-05-23T01:52:55.877Z,80.95
2019-05-23T01:57:59.131Z,80.30
2019-05-23T02:00:31.886Z,79.87
2019-05-23T02:03:02.105Z,78.71
2019-05-23T02:05:32.371Z,79.51
2019-05-23T02:08:02.465Z,79.52
2019-05-23T02:10:32.217Z,79.54
2019-05-23T02:13:02.086Z,79.54
2019-05-23T02:15:31.800Z,79.97
2019-05-23T02:18:01.873Z,80.65
2019-05-23T02:20:33.890Z,80.65
2019-05-23T02:23:05.273Z,80.64
2019-05-23T02:25:35.500Z,80.33
2019-05-23T02:28:07.015Z,80.19
2019-05-23T02:30:38.053Z,80.19
2019-05-23T02:33:07.868Z,79.35
2019-05-23T02:35:39.765Z,79.66
2019-05-23T02:38:31.235Z,79.47
2019-05-23T02:41:21.034Z,79.47
2019-05-23T02:43:56.137Z,79.83
2019-05-23T02:46:35.399Z,79.47
2019-05-23T02:49:05.195Z,80.18
2019-05-23T02:51:37.410Z,80.18
2019-05-23T02:54:08.135Z,80.28
2019-05-23T02:56:38.917Z,80.48
2019-05-23T02:59:21.336Z,80.81
2019-05-23T03:02:43.878Z,80.81
2019-05-23T03:05:14.813Z,81.00
2019-05-23T03:07:45.523Z,81.98
2019-05-23T03:10:16.698Z,81.98
2019-05-23T03:12:47.486Z,82.54
2019-05-23T03:15:17.261Z,82.33
2019-05-23T03:17:50.871Z,82.41
2019-05-23T03:20:22.193Z,82.41
2019-05-23T03:22:56.430Z,82.73
2019-05-23T03:26:17.209Z,83.20
2019-05-23T03:28:47.046Z,83.03
2019-05-23T03:31:30.040Z,83.03
2019-05-23T03:33:54.897Z,83.12
2019-05-23T03:36:25.148Z,83.04
2019-05-23T03:38:55.979Z,83.27
2019-05-23T03:41:26.103Z,83.27
2019-05-23T03:43:55.709Z,83.30
2019-05-23T03:46:27.535Z,83.41
2019-05-23T03:48:58.163Z,84.02
2019-05-23T03:51:27.655Z,84.02
2019-05-23T03:53:57.874Z,83.71
2019-05-23T03:56:28.039Z,83.86
2019-05-23T03:58:58.872Z,84.17
2019-05-23T04:01:46.789Z,84.25
2019-05-23T04:04:02.762Z,84.09
2019-05-23T04:06:33.321Z,84.09
2019-05-23T04:09:06.861Z,84.25
2019-05-23T04:11:37.359Z,84.25
2019-05-23T04:14:08.800Z,84.20
2019-05-23T04:16:38.726Z,84.34
2019-05-23T04:19:08.555Z,84.30
2019-05-23T04:21:39.189Z,84.46
2019-05-23T04:24:08.827Z,84.26
2019-05-23T04:26:39.712Z,84.29
2019-05-23T04:29:11.561Z,83.58
2019-05-23T04:31:41.194Z,83.97
2019-05-23T04:34:10.818Z,83.87
2019-05-23T04:36:40.461Z,83.87
2019-05-23T04:39:11.144Z,83.54
2019-05-23T04:41:41.747Z,83.73
2019-05-23T04:44:11.726Z,83.36
2019-05-23T04:46:41.468Z,83.26
2019-05-23T04:49:13.078Z,82.67
2019-05-23T04:51:42.838Z,82.61
2019-05-23T04:54:13.038Z,82.47
2019-05-23T04:56:43.648Z,82.37
2019-05-23T04:59:13.296Z,82.16
2019-05-23T05:01:43.926Z,81.50
2019-05-23T05:04:13.408Z,81.96
2019-05-23T05:06:42.942Z,81.96
2019-05-23T05:09:20.248Z,80.87
2019-05-23T05:11:50.034Z,80.87
2019-05-23T05:14:23.660Z,81.05
2019-05-23T05:16:56.974Z,80.66
2019-05-23T05:19:27.862Z,81.00
2019-05-23T05:21:57.469Z,80.76
2019-05-23T05:24:32.287Z,80.76
2019-05-23T05:27:01.817Z,79.78
2019-05-23T05:29:33.150Z,79.59
2019-05-23T05:32:04.611Z,78.98
2019-05-23T05:34:34.305Z,79.07
2019-05-23T05:37:04.217Z,79.07
2019-05-23T05:39:36.693Z,79.40
2019-05-23T05:42:33.406Z,78.70
2019-05-23T05:45:07.062Z,78.69
2019-05-23T05:47:36.978Z,78.38
2019-05-23T05:50:09.744Z,78.38
2019-05-23T05:52:40.520Z,77.69
2019-05-23T05:55:11.248Z,78.68
2019-05-23T05:57:40.797Z,77.25
2019-05-23T06:00:15.738Z,77.25
2019-05-23T06:03:02.685Z,77.50
2019-05-23T06:05:30.482Z,77.50
2019-05-23T06:08:05.410Z,77.74
2019-05-23T06:10:36.537Z,76.86
2019-05-23T06:13:06.384Z,77.08
2019-05-23T06:15:38.817Z,77.08
2019-05-23T06:18:09.394Z,76.67
2019-05-23T06:20:41.150Z,76.48
2019-05-23T06:23:11.279Z,75.91
2019-05-23T06:25:41.299Z,75.91
2019-05-23T06:28:11.838Z,76.50
2019-05-23T06:30:42.419Z,75.13
2019-05-23T06:33:22.619Z,74.79
2019-05-23T06:35:45.995Z,74.79
2019-05-23T06:38:16.223Z,73.33
2019-05-23T06:40:48.157Z,75.17
2019-05-23T06:43:17.849Z,73.68
2019-05-23T06:45:47.584Z,73.49
2019-05-23T06:48:18.944Z,73.49
2019-05-23T06:50:48.717Z,72.41
2019-05-23T06:53:18.538Z,72.30
2019-05-23T06:55:48.118Z,71.62
2019-05-23T06:58:18.078Z,71.62
2019-05-23T07:00:51.290Z,72.86
2019-05-23T07:03:40.540Z,70.20
2019-05-23T07:05:58.013Z,72.12
2019-05-23T07:08:29.865Z,71.11
2019-05-23T07:11:00.826Z,70.63
2019-05-23T07:13:32.072Z,71.24
2019-05-23T07:16:01.586Z,71.13
2019-05-23T07:18:31.103Z,69.00
2019-05-23T07:21:01.415Z,68.30
2019-05-23T07:23:31.143Z,68.54
2019-05-23T07:26:00.675Z,68.54
2019-05-23T07:28:32.388Z,66.75
2019-05-23T07:31:02.205Z,66.12
2019-05-23T07:33:32.250Z,67.28
2019-05-23T07:36:02.758Z,67.28
2019-05-23T07:38:33.075Z,65.72
2019-05-23T07:41:02.913Z,63.85
2019-05-23T07:43:32.796Z,63.85
2019-05-23T07:46:03.374Z,63.33
2019-05-23T07:48:34.586Z,64.72
2019-05-23T07:51:05.703Z,63.58
2019-05-23T07:53:52.336Z,62.45
2019-05-23T07:56:22.706Z,62.45
2019-05-23T07:58:53.705Z,63.28
2019-05-23T08:01:26.049Z,62.59
2019-05-23T08:03:56.113Z,62.97
2019-05-23T08:06:26.196Z,60.65
2019-05-23T08:08:56.397Z,60.65
2019-05-23T08:11:26.923Z,59.07
2019-05-23T08:13:57.258Z,59.44
2019-05-23T08:16:28.665Z,59.44
2019-05-23T08:18:58.218Z,56.32
2019-05-23T08:21:30.051Z,56.32
2019-05-23T08:24:02.181Z,58.39
2019-05-23T08:26:35.574Z,55.66
2019-05-23T08:29:30.001Z,57.47
2019-05-23T08:31:48.498Z,55.37
2019-05-23T08:34:18.756Z,54.91
2019-05-23T08:36:49.315Z,54.05
2019-05-23T08:39:20.247Z,54.21
2019-05-23T08:41:50.274Z,54.21
2019-05-23T08:44:20.701Z,52.81
2019-05-23T08:46:57.901Z,52.81
2019-05-23T08:49:28.743Z,51.52
2019-05-23T08:51:58.908Z,51.52
2019-05-23T08:54:29.157Z,52.94
2019-05-23T08:56:59.034Z,52.94
2019-05-23T08:59:28.681Z,52.59
2019-05-23T09:02:00.125Z,52.86
2019-05-23T09:04:29.894Z,52.86
2019-05-23T09:07:02.207Z,49.31
2019-05-23T09:09:32.817Z,49.24
2019-05-23T09:12:05.365Z,49.24
2019-05-23T09:14:35.468Z,48.43
2019-05-23T09:17:06.158Z,49.64
2019-05-23T09:19:35.677Z,47.01
2019-05-23T09:22:07.668Z,47.01
2019-05-23T09:24:37.463Z,49.13
2019-05-23T09:27:14.253Z,49.77
2019-05-23T09:29:43.717Z,49.83
2019-05-23T09:32:14.047Z,45.88
2019-05-23T09:34:44.452Z,48.21
2019-05-23T09:37:15.908Z,46.04
2019-05-23T09:39:46.072Z,48.21
2019-05-23T09:42:16.028Z,47.57
2019-05-23T09:44:55.130Z,47.20
2019-05-23T09:47:29.083Z,46.20
2019-05-23T09:50:01.282Z,46.20
2019-05-23T09:52:34.147Z,47.48
2019-05-23T09:55:09.409Z,47.26
2019-05-23T09:57:40.277Z,48.40
2019-05-23T10:00:13.919Z,46.40
2019-05-23T10:02:47.718Z,46.61
2019-05-23T10:05:17.739Z,46.68
2019-05-23T10:07:47.463Z,46.68
2019-05-23T10:10:19.115Z,45.66
2019-05-23T10:12:48.718Z,43.09
2019-05-23T10:15:39.730Z,44.74
2019-05-23T10:18:13.508Z,43.13
2019-05-23T10:20:43.939Z,44.04
2019-05-23T10:23:13.748Z,43.81
2019-05-23T10:25:43.251Z,43.81
2019-05-23T10:28:18.181Z,44.15
2019-05-23T10:30:48.000Z,44.15
2019-05-23T10:33:21.344Z,43.85
2019-05-23T10:36:00.495Z,43.47
2019-05-23T10:38:28.990Z,42.27
2019-05-23T10:40:59.891Z,42.79
2019-05-23T10:43:30.705Z,42.78
2019-05-23T10:46:04.804Z,40.57
2019-05-23T10:48:35.170Z,40.57
2019-05-23T10:51:05.669Z,40.82
2019-05-23T10:53:36.186Z,40.82
2019-05-23T10:56:06.321Z,40.15
2019-05-23T10:58:38.791Z,40.06
2019-05-23T11:01:09.239Z,41.32
2019-05-23T11:03:40.562Z,41.50
2019-05-23T11:06:16.615Z,38.28
2019-05-23T11:08:46.269Z,41.40
2019-05-23T11:11:16.042Z,41.40
2019-05-23T11:13:46.133Z,40.41
2019-05-23T11:16:15.800Z,40.41
2019-05-23T11:18:46.394Z,39.32
2019-05-23T11:21:16.936Z,39.32
2019-05-23T11:23:50.694Z,39.20
2019-05-23T11:26:21.758Z,38.43
2019-05-23T11:28:51.506Z,37.47
2019-05-23T11:31:22.308Z,36.78
2019-05-23T11:33:52.654Z,36.78
2019-05-23T11:36:34.791Z,38.08
2019-05-23T11:38:56.070Z,39.93
2019-05-23T11:41:25.642Z,38.79
2019-05-23T11:43:55.617Z,37.77
2019-05-23T11:46:34.066Z,37.77
2019-05-23T11:49:05.317Z,37.40
2019-05-23T11:51:37.698Z,41.18
2019-05-23T11:54:09.880Z,37.93
2019-05-23T11:56:40.297Z,38.01
2019-05-23T11:59:12.053Z,38.01
2019-05-23T12:01:58.886Z,36.99
2019-05-23T12:04:33.258Z,38.01
2019-05-23T12:07:09.762Z,39.98
2019-05-23T12:09:40.705Z,39.19
2019-05-23T12:12:10.795Z,39.19
2019-05-23T12:14:42.140Z,39.05
2019-05-23T12:17:13.307Z,37.25
2019-05-23T12:19:43.118Z,37.25
2019-05-23T12:22:12.690Z,40.45
2019-05-23T12:24:53.138Z,37.72
2019-05-23T12:27:25.370Z,38.41
2019-05-23T12:29:55.038Z,39.42
2019-05-23T12:32:24.521Z,37.64
2019-05-23T12:35:09.608Z,40.93
2019-05-23T12:37:27.329Z,40.93
2019-05-23T12:40:00.328Z,39.95
2019-05-23T12:42:29.966Z,38.77
2019-05-23T12:44:59.933Z,38.79
2019-05-23T12:47:47.389Z,37.27
2019-05-23T12:50:20.057Z,37.27
2019-05-23T12:52:49.467Z,37.24
2019-05-23T12:55:19.197Z,38.38
2019-05-23T12:57:49.317Z,39.00
2019-05-23T13:00:29.410Z,37.69
2019-05-23T13:02:59.233Z,40.33
2019-05-23T13:05:29.405Z,38.25
2019-05-23T13:07:58.921Z,38.48
2019-05-23T13:10:28.935Z,38.59
2019-05-23T13:12:58.425Z,38.59
2019-05-23T13:15:28.621Z,38.28
2019-05-23T13:17:58.338Z,38.42
2019-05-23T13:20:29.757Z,38.42
2019-05-23T13:23:00.053Z,37.37
2019-05-23T13:25:30.221Z,38.72
2019-05-23T13:28:00.177Z,37.85
2019-05-23T13:30:29.665Z,38.27
2019-05-23T13:33:03.524Z,37.06
2019-05-23T13:35:32.139Z,38.63
2019-05-23T13:38:02.189Z,38.58
2019-05-23T13:40:32.733Z,38.58
2019-05-23T13:43:07.848Z,38.98
2019-05-23T13:45:40.390Z,38.56
2019-05-23T13:48:09.743Z,38.56
2019-05-23T13:50:39.887Z,38.09
2019-05-23T13:53:11.458Z,37.35
2019-05-23T13:55:42.551Z,37.35
2019-05-23T13:58:14.000Z,37.77
2019-05-23T14:00:44.825Z,38.52
2019-05-23T14:03:15.142Z,38.52
2019-05-23T14:05:45.409Z,37.40
2019-05-23T14:08:19.200Z,37.90
2019-05-23T14:10:50.367Z,37.16
2019-05-23T14:13:20.398Z,37.34
2019-05-23T14:15:52.120Z,37.34
2019-05-23T14:18:22.465Z,39.13
2019-05-23T14:20:52.544Z,38.57
2019-05-23T14:23:26.463Z,38.57
2019-05-23T14:25:56.944Z,36.91
2019-05-23T14:28:27.076Z,36.21
2019-05-23T14:31:17.558Z,36.21
2019-05-23T14:34:09.645Z,36.06
2019-05-23T14:36:55.539Z,36.85
2019-05-23T14:39:46.428Z,36.85
2019-05-23T14:42:33.452Z,37.05
2019-05-23T14:45:03.493Z,37.05
2019-05-23T14:47:45.069Z,36.02
2019-05-23T14:50:36.879Z,36.19
2019-05-23T14:53:06.499Z,36.19
2019-05-23T14:55:39.596Z,36.43
2019-05-23T14:58:09.604Z,38.15
2019-05-23T15:00:45.268Z,37.32
2019-05-23T15:03:15.457Z,38.44
2019-05-23T15:05:45.764Z,35.72
2019-05-23T15:08:19.401Z,35.72
2019-05-23T15:10:49.559Z,36.89
2019-05-23T15:13:19.766Z,35.84
2019-05-23T15:15:50.150Z,36.69
2019-05-23T15:18:21.365Z,36.78
2019-05-23T15:20:51.079Z,36.78
2019-05-23T15:23:20.818Z,36.74
2019-05-23T15:25:54.244Z,36.46
2019-05-23T15:28:27.171Z,36.46
2019-05-23T15:30:56.786Z,34.17
2019-05-23T15:33:29.378Z,35.58
2019-05-23T15:35:58.871Z,34.01
2019-05-23T15:38:34.824Z,32.42
2019-05-23T15:41:08.161Z,32.42
2019-05-23T15:43:37.942Z,36.11
2019-05-23T15:46:08.138Z,34.31
2019-05-23T15:48:40.921Z,32.41
2019-05-23T15:51:12.388Z,32.41
2019-05-23T15:54:03.374Z,30.82
2019-05-23T15:56:50.734Z,33.20
2019-05-23T15:59:40.641Z,33.20
2019-05-23T16:02:24.598Z,32.73
2019-05-23T16:04:57.172Z,32.23
2019-05-23T16:07:27.229Z,32.47
2019-05-23T16:09:56.769Z,32.47
2019-05-23T16:12:26.885Z,33.07
2019-05-23T16:14:56.579Z,32.44
2019-05-23T16:17:27.284Z,33.42
2019-05-23T16:19:56.868Z,36.06
2019-05-23T16:22:29.295Z,35.60
2019-05-23T16:24:58.989Z,35.60
2019-05-23T16:27:29.831Z,32.72
2019-05-23T16:29:59.520Z,35.19
2019-05-23T16:32:32.261Z,35.19
2019-05-23T16:35:02.206Z,34.88
2019-05-23T16:37:33.371Z,33.81
2019-05-23T16:40:03.239Z,34.54
2019-05-23T16:42:33.109Z,35.90
2019-05-23T16:45:03.267Z,34.54
2019-05-23T16:47:33.230Z,34.79
2019-05-23T16:50:02.786Z,35.40
2019-05-23T16:52:32.238Z,35.99
2019-05-23T16:55:03.346Z,35.99
2019-05-23T16:57:41.836Z,37.21
2019-05-23T17:00:29.272Z,37.21
2019-05-23T17:03:11.676Z,35.41
2019-05-23T17:05:56.391Z,35.41
2019-05-23T17:08:50.892Z,35.61
2019-05-23T17:11:29.691Z,36.15
2019-05-23T17:14:08.125Z,35.53
2019-05-23T17:16:43.969Z,35.53
2019-05-23T17:19:29.736Z,35.67
2019-05-23T17:22:11.744Z,35.93
2019-05-23T17:25:00.650Z,37.17
2019-05-23T17:27:48.142Z,37.17
2019-05-23T17:30:28.094Z,38.69
2019-05-23T17:32:58.884Z,38.44
2019-05-23T17:35:30.230Z,37.99
2019-05-23T17:38:00.426Z,37.99
2019-05-23T17:40:33.132Z,37.61
2019-05-23T17:43:06.087Z,37.28
2019-05-23T17:45:36.079Z,37.28
2019-05-23T17:48:06.021Z,36.90
2019-05-23T17:50:36.635Z,37.87
2019-05-23T17:53:09.119Z,39.71
2019-05-23T17:55:41.133Z,37.98
2019-05-23T17:58:11.244Z,37.98
2019-05-23T18:00:42.414Z,39.76
2019-05-23T18:03:12.374Z,39.95
2019-05-23T18:05:42.207Z,38.95
2019-05-23T18:08:13.149Z,39.13
2019-05-23T18:10:45.147Z,39.13
2019-05-23T18:13:15.426Z,37.80
2019-05-23T18:15:46.395Z,38.76
2019-05-23T18:18:16.377Z,37.53
2019-05-23T18:20:53.155Z,37.89
2019-05-23T18:23:25.057Z,39.64
2019-05-23T18:25:56.616Z,38.85
2019-05-23T18:28:26.332Z,37.81
2019-05-23T18:31:05.526Z,37.75
2019-05-23T18:33:32.565Z,37.75
2019-05-23T18:36:02.512Z,38.79
2019-05-23T18:38:37.038Z,38.73
2019-05-23T18:41:13.144Z,39.33
2019-05-23T18:43:45.715Z,39.33
2019-05-23T18:46:40.370Z,39.41
2019-05-23T18:49:12.846Z,39.32
2019-05-23T18:51:42.611Z,40.15
2019-05-23T18:54:12.295Z,38.92
2019-05-23T18:56:46.215Z,38.80
2019-05-23T18:59:17.156Z,39.36
2019-05-23T19:01:47.357Z,39.99
2019-05-23T19:04:17.664Z,39.06
2019-05-23T19:06:47.400Z,39.06
2019-05-23T19:09:21.741Z,38.62
2019-05-23T19:11:52.200Z,39.99
2019-05-23T19:14:25.138Z,39.93
2019-05-23T19:16:56.958Z,41.18
2019-05-23T19:19:27.177Z,41.18
2019-05-23T19:21:57.058Z,40.03
2019-05-23T19:24:32.071Z,40.03
2019-05-23T19:27:01.828Z,39.31
2019-05-23T19:29:34.400Z,39.28
2019-05-23T19:32:04.651Z,39.28
2019-05-23T19:34:34.586Z,39.80
2019-05-23T19:37:04.684Z,39.74
2019-05-23T19:39:35.222Z,40.44
2019-05-23T19:42:06.345Z,40.44
2019-05-23T19:44:36.452Z,41.22
2019-05-23T19:47:06.375Z,41.45
2019-05-23T19:49:36.286Z,41.16
2019-05-23T19:52:07.055Z,41.16
2019-05-23T19:54:37.344Z,41.43
2019-05-23T19:57:10.386Z,41.71
2019-05-23T19:59:40.273Z,41.17
2019-05-23T20:02:29.136Z,41.43
2019-05-23T20:05:04.496Z,41.34
2019-05-23T20:07:39.330Z,41.34
2019-05-23T20:10:09.821Z,41.20
2019-05-23T20:12:42.199Z,41.42
2019-05-23T20:15:13.329Z,41.42
2019-05-23T20:17:51.302Z,41.42
2019-05-23T20:20:19.348Z,41.57
2019-05-23T20:22:49.672Z,41.45
2019-05-23T20:25:22.603Z,41.45
2019-05-23T20:27:55.691Z,42.18
2019-05-23T20:30:56.835Z,42.18
2019-05-23T20:33:27.160Z,41.79
2019-05-23T20:35:57.210Z,41.79
2019-05-23T20:38:27.488Z,42.22
2019-05-23T20:40:57.468Z,41.60
2019-05-23T20:43:27.273Z,43.19
2019-05-23T20:45:58.659Z,43.71
2019-05-23T20:48:32.265Z,43.69
2019-05-23T20:51:03.715Z,44.58
2019-05-23T20:53:36.199Z,44.11
2019-05-23T20:56:05.529Z,44.24
2019-05-23T20:58:35.096Z,44.24
2019-05-23T21:01:17.225Z,43.90
2019-05-23T21:03:47.385Z,43.90
2019-05-23T21:06:17.154Z,43.93
2019-05-23T21:08:48.592Z,43.39
2019-05-23T21:11:18.173Z,43.39
2019-05-23T21:13:47.831Z,43.55
2019-05-23T21:16:20.124Z,43.70
2019-05-23T21:18:54.115Z,43.86
2019-05-23T21:21:24.201Z,43.86
2019-05-23T21:23:56.825Z,44.69
2019-05-23T21:26:25.143Z,45.69
2019-05-23T21:28:56.692Z,47.45
2019-05-23T21:31:26.817Z,47.45
2019-05-23T21:33:56.353Z,47.08
2019-05-23T21:36:26.395Z,46.88
2019-05-23T21:38:56.474Z,46.88
2019-05-23T21:41:26.672Z,47.44
2019-05-23T21:43:59.556Z,47.34
2019-05-23T21:46:29.163Z,47.25
2019-05-23T21:48:59.277Z,48.15
2019-05-23T21:51:32.257Z,50.40
2019-05-23T21:54:01.760Z,50.40
2019-05-23T21:56:33.635Z,49.83
2019-05-23T21:59:03.698Z,51.26
2019-05-23T22:01:57.315Z,51.26
2019-05-23T22:04:29.371Z,52.83
2019-05-23T22:07:03.082Z,51.82
2019-05-23T22:09:34.042Z,51.82
2019-05-23T22:12:04.129Z,52.86
2019-05-23T22:14:34.248Z,52.86
2019-05-23T22:17:03.942Z,51.67
2019-05-23T22:19:36.430Z,50.74
2019-05-23T22:22:07.721Z,50.68
2019-05-23T22:24:37.921Z,50.68
2019-05-23T22:27:09.762Z,51.64
2019-05-23T22:29:39.388Z,51.64
2019-05-23T22:32:10.415Z,51.64
2019-05-23T22:34:52.616Z,52.41
2019-05-23T22:37:27.141Z,53.56
2019-05-23T22:39:58.181Z,54.10
2019-05-23T22:42:29.873Z,54.62
2019-05-23T22:44:59.712Z,56.44
2019-05-23T22:47:29.446Z,56.59
2019-05-23T22:49:59.159Z,56.59
2019-05-23T22:52:30.416Z,56.38
2019-05-23T22:54:59.917Z,58.08
2019-05-23T22:57:32.292Z,57.35
2019-05-23T23:00:02.218Z,57.35
2019-05-23T23:02:31.907Z,57.60
2019-05-23T23:05:03.670Z,57.33
2019-05-23T23:07:34.917Z,57.30
2019-05-23T23:10:05.077Z,58.67
2019-05-23T23:12:34.749Z,59.50
2019-05-23T23:15:04.441Z,58.99
2019-05-23T23:17:34.668Z,58.99
2019-05-23T23:20:04.796Z,59.86
2019-05-23T23:22:34.913Z,58.67
2019-05-23T23:25:04.489Z,58.67
2019-05-23T23:27:35.847Z,59.42
2019-05-23T23:30:05.466Z,60.08
2019-05-23T23:32:37.021Z,57.41
2019-05-23T23:35:07.267Z,56.93
2019-05-23T23:37:37.324Z,56.70
2019-05-23T23:40:07.754Z,56.70
2019-05-23T23:42:37.671Z,58.47
2019-05-23T23:45:25.004Z,57.24
2019-05-23T23:48:12.133Z,58.44
2019-05-23T23:51:00.481Z,58.46
2019-05-23T23:53:48.916Z,57.89
2019-05-23T23:56:36.149Z,58.08
2019-05-23T23:59:06.421Z,56.46
